Terminal Aerodrome Forecast
Issued by NWS

Current Version | Previous Version | Text Only | Print | Product List | Glossary On
Versions: 1 2 3 4 5 6 7 8 9 10 11 12 13 14 15 16 17 18 19 20 21 22 23 24 25
000
FTUS43 KICT 221352 AAA
TAFSLN
TAF AMD
KSLN 221352Z 2214/2312 21008KT P6SM -RA OVC005
     FM221500 25008KT P6SM VCSH SCT030 BKN070
     FM221800 31021G31KT P6SM SCT030 BKN120
     FM230100 30012KT P6SM SCT120=

USA.gov is the U.S. government's official web portal to all federal, state and local government web resources and services.